地図

経路データ

SID SEASON NUMBER BASIN SUBBASIN NAME ISO_TIME NATURE LAT LON WMO_WIND WMO_PRES WMO_AGENCY TRACK_TYPE DIST2LAND LANDFALL IFLAG USA_AGENCY USA_ATCF_ID USA_LAT USA_LON USA_RECORD USA_STATUS USA_WIND USA_PRES USA_SSHS USA_R34_NE USA_R34_SE USA_R34_SW USA_R34_NW USA_R50_NE USA_R50_SE USA_R50_SW USA_R50_NW USA_R64_NE USA_R64_SE USA_R64_SW USA_R64_NW USA_POCI USA_ROCI USA_RMW USA_EYE TOKYO_LAT TOKYO_LON TOKYO_GRADE TOKYO_WIND TOKYO_PRES TOKYO_R50_DIR TOKYO_R50_LONG TOKYO_R50_SHORT TOKYO_R30_DIR TOKYO_R30_LONG TOKYO_R30_SHORT TOKYO_LAND CMA_LAT CMA_LON CMA_CAT CMA_WIND CMA_PRES HKO_LAT HKO_LON HKO_CAT HKO_WIND HKO_PRES NEWDELHI_LAT NEWDELHI_LON NEWDELHI_GRADE NEWDELHI_WIND NEWDELHI_PRES NEWDELHI_CI NEWDELHI_DP NEWDELHI_POCI REUNION_LAT REUNION_LON REUNION_TYPE REUNION_WIND REUNION_PRES REUNION_TNUM REUNION_CI REUNION_RMW REUNION_R34_NE REUNION_R34_SE REUNION_R34_SW REUNION_R34_NW REUNION_R50_NE REUNION_R50_SE REUNION_R50_SW REUNION_R50_NW REUNION_R64_NE REUNION_R64_SE REUNION_R64_SW REUNION_R64_NW BOM_LAT BOM_LON BOM_TYPE BOM_WIND BOM_PRES BOM_TNUM BOM_CI BOM_RMW BOM_R34_NE BOM_R34_SE BOM_R34_SW BOM_R34_NW BOM_R50_NE BOM_R50_SE BOM_R50_SW BOM_R50_NW BOM_R64_NE BOM_R64_SE BOM_R64_SW BOM_R64_NW BOM_ROCI BOM_POCI BOM_EYE BOM_POS_METHOD BOM_PRES_METHOD NADI_LAT NADI_LON NADI_CAT NADI_WIND NADI_PRES WELLINGTON_LAT WELLINGTON_LON WELLINGTON_WIND WELLINGTON_PRES DS824_LAT DS824_LON DS824_STAGE DS824_WIND DS824_PRES TD9636_LAT TD9636_LON TD9636_STAGE TD9636_WIND TD9636_PRES TD9635_LAT TD9635_LON TD9635_WIND TD9635_PRES TD9635_ROCI NEUMANN_LAT NEUMANN_LON NEUMANN_CLASS NEUMANN_WIND NEUMANN_PRES MLC_LAT MLC_LON MLC_CLASS MLC_WIND MLC_PRES USA_GUST BOM_GUST BOM_GUST_PER REUNION_GUST REUNION_GUST_PER USA_SEAHGT USA_SEARAD_NE USA_SEARAD_SE USA_SEARAD_SW USA_SEARAD_NW STORM_SPEED STORM_DIR
1944032S05064 1944 9 SI MM NOT_NAMED 1944-02-01 06:00:00 NR -5.20000 64.0000 reunion main 1777 1777 _____O________ -1 -5.20000 64.0000 99 9.90000 1 264
1944032S05064 1944 9 SI MM NOT_NAMED 1944-02-01 09:00:00 NR -5.20408 63.9712 main 1777 1768 _____P________ -1 -5.20408 63.9712 99 1 256
1944032S05064 1944 9 SI MM NOT_NAMED 1944-02-01 12:00:00 NR -5.21611 63.9310 main 1768 1768 _____P________ -1 -5.21611 63.9310 99 1 249
1944032S05064 1944 9 SI MM NOT_NAMED 1944-02-01 15:00:00 NR -5.24405 63.8676 main 1768 1752 _____P________ -1 -5.24405 63.8676 99 2 243
1944032S05064 1944 9 SI MM NOT_NAMED 1944-02-01 18:00:00 NR -5.29583 63.7697 main 1752 1728 _____P________ -1 -5.29583 63.7697 99 3 241
1944032S05064 1944 9 SI MM NOT_NAMED 1944-02-01 21:00:00 NR -5.37939 63.6256 main 1728 1703 _____P________ -1 -5.37939 63.6256 99 4 239
1944032S05064 1944 9 SI MM NOT_NAMED 1944-02-02 00:00:00 NR -5.50266 63.4238 main 1703 1672 _____P________ -1 -5.50266 63.4238 99 6 238
1944032S05064 1944 9 SI MM NOT_NAMED 1944-02-02 03:00:00 NR -5.67356 63.1525 main 1672 1623 _____P________ -1 -5.67356 63.1525 99 7 237
1944032S05064 1944 9 SI MM NOT_NAMED 1944-02-02 06:00:00 NR -5.90000 62.8000 reunion main 1623 1568 _____O________ -1 -5.90000 62.8000 99 9.90000 9 237
1944032S05064 1944 9 SI MM NOT_NAMED 1944-02-02 09:00:00 NR -6.18678 62.3595 main 1568 1503 _____P________ -1 -6.18678 62.3595 99 11 237
1944032S05064 1944 9 SI MM NOT_NAMED 1944-02-02 12:00:00 NR -6.52658 61.8452 main 1493 1423 _____P________ -1 -6.52658 61.8452 99 13 236
1944032S05064 1944 9 SI MM NOT_NAMED 1944-02-02 15:00:00 NR -6.90900 61.2765 main 1423 1343 _____P________ -1 -6.90900 61.2765 99 14 236
1944032S05064 1944 9 SI MM NOT_NAMED 1944-02-02 18:00:00 NR -7.32367 60.6727 main 1343 1264 _____P________ -1 -7.32367 60.6727 99 15 235
1944032S05064 1944 9 SI MM NOT_NAMED 1944-02-02 21:00:00 NR -7.76025 60.0534 main 1258 1179 _____P________ -1 -7.76025 60.0534 99 15 234
1944032S05064 1944 9 SI MM NOT_NAMED 1944-02-03 00:00:00 NR -8.20852 59.4384 main 1169 1100 _____P________ -1 -8.20852 59.4384 99 15 233
1944032S05064 1944 9 SI MM NOT_NAMED 1944-02-03 03:00:00 NR -8.65840 58.8473 main 1085 1015 _____P________ -1 -8.65840 58.8473 99 14 232
1944032S05064 1944 9 SI MM NOT_NAMED 1944-02-03 06:00:00 NR -9.10000 58.3000 reunion main 1015 946 _____O________ -1 -9.10000 58.3000 99 9.90000 13 230
1944032S05064 1944 9 SI MM NOT_NAMED 1944-02-03 09:00:00 NR -9.51258 57.7991 main 946 888 _____P________ -1 -9.51258 57.7991 99 13 229
1944032S05064 1944 9 SI MM NOT_NAMED 1944-02-03 12:00:00 NR -9.92589 57.3253 main 878 820 _____P________ -1 -9.92589 57.3253 99 12 228
1944032S05064 1944 9 SI MM NOT_NAMED 1944-02-03 15:00:00 NR -10.3360 56.8865 main 820 763 _____P________ -1 -10.3360 56.8865 99 12 225
1944032S05064 1944 9 SI MM NOT_NAMED 1944-02-03 18:00:00 NR -10.7389 56.4906 main 763 717 _____P________ -1 -10.7389 56.4906 99 11 222
1944032S05064 1944 9 SI MM NOT_NAMED 1944-02-03 21:00:00 NR -11.1307 56.1458 main 707 673 _____P________ -1 -11.1307 56.1458 99 10 219
1944032S05064 1944 9 SI MM NOT_NAMED 1944-02-04 00:00:00 NR -11.5074 55.8602 main 673 644 _____P________ -1 -11.5074 55.8602 99 9 214
1944032S05064 1944 9 SI MM NOT_NAMED 1944-02-04 03:00:00 NR -11.8652 55.6421 main 630 611 _____P________ -1 -11.8652 55.6421 99 8 207
1944032S05064 1944 9 SI MM NOT_NAMED 1944-02-04 06:00:00 NR -12.2000 55.5000 reunion main 611 602 _____O________ -1 -12.2000 55.5000 99 9.90000 7 196
1944032S05064 1944 9 SI MM NOT_NAMED 1944-02-04 09:00:00 NR -12.5234 55.4522 main 602 595 _____P________ -1 -12.5234 55.4522 99 6 180
1944032S05064 1944 9 SI MM NOT_NAMED 1944-02-04 12:00:00 NR -12.8268 55.4858 main 595 591 _____P________ -1 -12.8268 55.4858 99 6 167
1944032S05064 1944 9 SI MM NOT_NAMED 1944-02-04 15:00:00 NR -13.1097 55.5848 main 598 593 _____P________ -1 -13.1097 55.5848 99 6 156
1944032S05064 1944 9 SI MM NOT_NAMED 1944-02-04 18:00:00 NR -13.3717 55.7333 main 595 595 _____P________ -1 -13.3717 55.7333 99 6 147
1944032S05064 1944 9 SI MM NOT_NAMED 1944-02-04 21:00:00 NR -13.6121 55.9153 main 608 605 _____P________ -1 -13.6121 55.9153 99 6 141
1944032S05064 1944 9 SI MM NOT_NAMED 1944-02-05 00:00:00 NR -13.8307 56.1146 main 623 620 _____P________ -1 -13.8307 56.1146 99 6 137
1944032S05064 1944 9 SI MM NOT_NAMED 1944-02-05 03:00:00 NR -14.0268 56.3149 main 638 636 _____P________ -1 -14.0268 56.3149 99 5 135
1944032S05064 1944 9 SI MM NOT_NAMED 1944-02-05 06:00:00 NR -14.2000 56.5000 reunion main 655 653 _____O________ -1 -14.2000 56.5000 99 9.90000 4 140
1944032S05064 1944 9 SI MM NOT_NAMED 1944-02-05 09:00:00 NR -14.3557 56.5999 main 644 632 _____P________ -1 -14.3557 56.5999 99 3 147
1944032S05064 1944 9 SI MM NOT_NAMED 1944-02-05 12:00:00 NR -14.4860 56.6931 main 632 619 _____P________ -1 -14.4860 56.6931 99 3 144
1944032S05064 1944 9 SI MM NOT_NAMED 1944-02-05 15:00:00 NR -14.5958 56.7812 main 619 607 _____P________ -1 -14.5958 56.7812 99 3 140
1944032S05064 1944 9 SI MM NOT_NAMED 1944-02-05 18:00:00 NR -14.6897 56.8658 main 607 596 _____P________ -1 -14.6897 56.8658 99 2 137
1944032S05064 1944 9 SI MM NOT_NAMED 1944-02-05 21:00:00 NR -14.7724 56.9483 main 596 595 _____P________ -1 -14.7724 56.9483 99 2 135
1944032S05064 1944 9 SI MM NOT_NAMED 1944-02-06 00:00:00 NR -14.8486 57.0305 main 595 583 _____P________ -1 -14.8486 57.0305 99 2 134
1944032S05064 1944 9 SI MM NOT_NAMED 1944-02-06 03:00:00 NR -14.9229 57.1139 main 583 571 _____P________ -1 -14.9229 57.1139 99 2 133
1944032S05064 1944 9 SI MM NOT_NAMED 1944-02-06 06:00:00 NR -15.0000 57.2000 reunion main 571 559 _____O________ -1 -15.0000 57.2000 99 9.90000 2 136
1944032S05064 1944 9 SI MM NOT_NAMED 1944-02-06 09:00:00 NR -15.0923 57.2879 main 559 548 _____P________ -1 -15.0923 57.2879 99 3 136
1944032S05064 1944 9 SI MM NOT_NAMED 1944-02-06 12:00:00 NR -15.1836 57.3769 main 548 537 _____P________ -1 -15.1836 57.3769 99 3 137
1944032S05064 1944 9 SI MM NOT_NAMED 1944-02-06 15:00:00 NR -15.2756 57.4683 main 537 525 _____P________ -1 -15.2756 57.4683 99 3 136
1944032S05064 1944 9 SI MM NOT_NAMED 1944-02-06 18:00:00 NR -15.3698 57.5631 main 525 514 _____P________ -1 -15.3698 57.5631 99 3 136
1944032S05064 1944 9 SI MM NOT_NAMED 1944-02-06 21:00:00 NR -15.4678 57.6625 main 514 503 _____P________ -1 -15.4678 57.6625 99 3 135
1944032S05064 1944 9 SI MM NOT_NAMED 1944-02-07 00:00:00 NR -15.5711 57.7676 main 503 492 _____P________ -1 -15.5711 57.7676 99 3 136
1944032S05064 1944 9 SI MM NOT_NAMED 1944-02-07 03:00:00 NR -15.6813 57.8798 main 492 482 _____P________ -1 -15.6813 57.8798 99 3 136
1944032S05064 1944 9 SI MM NOT_NAMED 1944-02-07 06:00:00 NR -15.8000 58.0000 reunion main 482 471 _____O________ -1 -15.8000 58.0000 99 9.90000 4 136
1944032S05064 1944 9 SI MM NOT_NAMED 1944-02-07 09:00:00 NR -15.9372 58.1370 main 471 450 _____P________ -1 -15.9372 58.1370 99 4 136
1944032S05064 1944 9 SI MM NOT_NAMED 1944-02-07 12:00:00 NR -16.0836 58.2831 main 452 442 _____P________ -1 -16.0836 58.2831 99 4 136
1944032S05064 1944 9 SI MM NOT_NAMED 1944-02-07 15:00:00 NR -16.2363 58.4357 main 442 424 _____P________ -1 -16.2363 58.4357 99 4 136
1944032S05064 1944 9 SI MM NOT_NAMED 1944-02-07 18:00:00 NR -16.3927 58.5920 main 424 416 _____P________ -1 -16.3927 58.5920 99 4 136
1944032S05064 1944 9 SI MM NOT_NAMED 1944-02-07 21:00:00 NR -16.5500 58.7494 main 405 400 _____P________ -1 -16.5500 58.7494 99 4 136
1944032S05064 1944 9 SI MM NOT_NAMED 1944-02-08 00:00:00 NR -16.7055 58.9050 main 400 393 _____P________ -1 -16.7055 58.9050 99 4 136
1944032S05064 1944 9 SI MM NOT_NAMED 1944-02-08 03:00:00 NR -16.8564 59.0561 main 387 381 _____P________ -1 -16.8564 59.0561 99 4 136
1944032S05064 1944 9 SI MM NOT_NAMED 1944-02-08 06:00:00 NR -17.0000 59.2000 reunion main 381 370 _____O________ -1 -17.0000 59.2000 99 9.90000 4 137
1944032S05064 1944 9 SI MM NOT_NAMED 1944-02-08 09:00:00 NR -17.1263 59.3210 main 375 365 _____P________ -1 -17.1263 59.3210 99 3 138
1944032S05064 1944 9 SI MM NOT_NAMED 1944-02-08 12:00:00 NR -17.2462 59.4349 main 370 356 _____P________ -1 -17.2462 59.4349 99 3 138
1944032S05064 1944 9 SI MM NOT_NAMED 1944-02-08 15:00:00 NR -17.3611 59.5441 main 356 352 _____P________ -1 -17.3611 59.5441 99 3 137
1944032S05064 1944 9 SI MM NOT_NAMED 1944-02-08 18:00:00 NR -17.4720 59.6507 main 359 350 _____P________ -1 -17.4720 59.6507 99 3 137
1944032S05064 1944 9 SI MM NOT_NAMED 1944-02-08 21:00:00 NR -17.5802 59.7573 main 356 347 _____P________ -1 -17.5802 59.7573 99 3 137
1944032S05064 1944 9 SI MM NOT_NAMED 1944-02-09 00:00:00 NR -17.6869 59.8661 main 354 346 _____P________ -1 -17.6869 59.8661 99 3 135
1944032S05064 1944 9 SI MM NOT_NAMED 1944-02-09 03:00:00 NR -17.7931 59.9796 main 353 345 _____P________ -1 -17.7931 59.9796 99 3 134
1944032S05064 1944 9 SI MM NOT_NAMED 1944-02-09 06:00:00 NR -17.9000 60.1000 reunion main 352 352 _____O________ -1 -17.9000 60.1000 99 9.90000 3 132
1944032S05064 1944 9 SI MM NOT_NAMED 1944-02-09 09:00:00 NR -18.0163 60.2380 main 352 352 _____P________ -1 -18.0163 60.2380 99 4 131
1944032S05064 1944 9 SI MM NOT_NAMED 1944-02-09 12:00:00 NR -18.1332 60.3825 main 361 354 _____P________ -1 -18.1332 60.3825 99 4 130
1944032S05064 1944 9 SI MM NOT_NAMED 1944-02-09 15:00:00 NR -18.2497 60.5320 main 362 356 _____P________ -1 -18.2497 60.5320 99 4 129
1944032S05064 1944 9 SI MM NOT_NAMED 1944-02-09 18:00:00 NR -18.3651 60.6849 main 367 367 _____P________ -1 -18.3651 60.6849 99 4 128
1944032S05064 1944 9 SI MM NOT_NAMED 1944-02-09 21:00:00 NR -18.4786 60.8398 main 371 371 _____P________ -1 -18.4786 60.8398 99 4 127
1944032S05064 1944 9 SI MM NOT_NAMED 1944-02-10 00:00:00 NR -18.5894 60.9950 main 384 384 _____P________ -1 -18.5894 60.9950 99 4 127
1944032S05064 1944 9 SI MM NOT_NAMED 1944-02-10 03:00:00 NR -18.6968 61.1489 main 389 389 _____P________ -1 -18.6968 61.1489 99 4 126
1944032S05064 1944 9 SI MM NOT_NAMED 1944-02-10 06:00:00 NR -18.8000 61.3000 reunion main 403 403 _____O________ -1 -18.8000 61.3000 99 9.90000 3 129
1944032S05064 1944 9 SI MM NOT_NAMED 1944-02-10 09:00:00 NR -18.9002 61.4195 main 408 408 _____P________ -1 -18.9002 61.4195 99 3 132
1944032S05064 1944 9 SI MM NOT_NAMED 1944-02-10 12:00:00 NR -18.9967 61.5340 main 413 413 _____P________ -1 -18.9967 61.5340 99 3 131
1944032S05064 1944 9 SI MM NOT_NAMED 1944-02-10 15:00:00 NR -19.0895 61.6486 main 419 419 _____P________ -1 -19.0895 61.6486 99 3 130
1944032S05064 1944 9 SI MM NOT_NAMED 1944-02-10 18:00:00 NR -19.1786 61.7683 main 436 436 _____P________ -1 -19.1786 61.7683 99 3 126
1944032S05064 1944 9 SI MM NOT_NAMED 1944-02-10 21:00:00 NR -19.2643 61.8982 main 443 443 _____P________ -1 -19.2643 61.8982 99 3 123
1944032S05064 1944 9 SI MM NOT_NAMED 1944-02-11 00:00:00 NR -19.3464 62.0434 main 453 453 _____P________ -1 -19.3464 62.0434 99 3 119
1944032S05064 1944 9 SI MM NOT_NAMED 1944-02-11 03:00:00 NR -19.4250 62.2090 main 471 471 _____P________ -1 -19.4250 62.2090 99 4 115
1944032S05064 1944 9 SI MM NOT_NAMED 1944-02-11 06:00:00 NR -19.5000 62.4000 reunion main 489 489 _____O________ -1 -19.5000 62.4000 99 9.90000 4 108
1944032S05064 1944 9 SI MM NOT_NAMED 1944-02-11 09:00:00 NR -19.5630 62.6567 main 518 518 _____P________ -1 -19.5630 62.6567 99 5 103
1944032S05064 1944 9 SI MM NOT_NAMED 1944-02-11 12:00:00 NR -19.6206 62.9417 main 538 538 _____P________ -1 -19.6206 62.9417 99 6 101
1944032S05064 1944 9 SI MM NOT_NAMED 1944-02-11 15:00:00 NR -19.6753 63.2453 main 568 568 _____P________ -1 -19.6753 63.2453 99 6 101
1944032S05064 1944 9 SI MM NOT_NAMED 1944-02-11 18:00:00 NR -19.7297 63.5577 main 609 609 _____P________ -1 -19.7297 63.5577 99 6 101
1944032S05064 1944 9 SI MM NOT_NAMED 1944-02-11 21:00:00 NR -19.7866 63.8691 main 639 639 _____P________ -1 -19.7866 63.8691 99 6 102
1944032S05064 1944 9 SI MM NOT_NAMED 1944-02-12 00:00:00 NR -19.8487 64.1699 main 670 669 _____P________ -1 -19.8487 64.1699 99 6 104
1944032S05064 1944 9 SI MM NOT_NAMED 1944-02-12 03:00:00 NR -19.9189 64.4501 main 700 700 _____P________ -1 -19.9189 64.4501 99 5 107
1944032S05064 1944 9 SI MM NOT_NAMED 1944-02-12 06:00:00 NR -20.0000 64.7000 reunion main 720 720 _____O________ -1 -20.0000 64.7000 99 9.90000 5 112
1944032S05064 1944 9 SI MM NOT_NAMED 1944-02-12 09:00:00 NR -20.0942 64.9124 main 741 741 _____P________ -1 -20.0942 64.9124 99 4 119
1944032S05064 1944 9 SI MM NOT_NAMED 1944-02-12 12:00:00 NR -20.2007 65.0898 main 761 761 _____P________ -1 -20.2007 65.0898 99 4 126
1944032S05064 1944 9 SI MM NOT_NAMED 1944-02-12 15:00:00 NR -20.3176 65.2372 main 771 771 _____P________ -1 -20.3176 65.2372 99 4 134
1944032S05064 1944 9 SI MM NOT_NAMED 1944-02-12 18:00:00 NR -20.4435 65.3596 main 792 792 _____P________ -1 -20.4435 65.3596 99 3 141
1944032S05064 1944 9 SI MM NOT_NAMED 1944-02-12 21:00:00 NR -20.5764 65.4621 main 802 802 _____P________ -1 -20.5764 65.4621 99 3 147
1944032S05064 1944 9 SI MM NOT_NAMED 1944-02-13 00:00:00 NR -20.7146 65.5497 main 803 803 _____P________ -1 -20.7146 65.5497 99 3 151
1944032S05064 1944 9 SI MM NOT_NAMED 1944-02-13 03:00:00 NR -20.8564 65.6273 main 814 814 _____P________ -1 -20.8564 65.6273 99 3 153
1944032S05064 1944 9 SI MM NOT_NAMED 1944-02-13 06:00:00 NR -21.0000 65.7000 reunion main 825 _____O________ -1 -21.0000 65.7000 99 9.90000 3 155

IBTrACS Databaseについて

本データベースは、米国NOAAが公開する1842年以降の世界の熱帯低気圧のベストトラックデータアーカイブInternational Best Track Archive for Climate Stewardship (IBTrACS)を、ウェブで閲覧しやすい形式に変換したものです。

最終更新日:2021-12-08